createdAt,value
2017-08-28T00:00:49.471Z,0.00
2017-08-28T00:01:49.489Z,0.00
2017-08-28T00:02:49.512Z,0.00
2017-08-28T00:03:49.537Z,0.00
2017-08-28T00:04:49.553Z,0.00
2017-08-28T00:05:49.583Z,0.00
2017-08-28T00:06:49.609Z,0.00
2017-08-28T00:07:49.624Z,0.00
2017-08-28T00:08:49.647Z,0.00
2017-08-28T00:09:49.669Z,0.00
2017-08-28T00:10:49.699Z,0.00
2017-08-28T00:11:49.734Z,0.00
2017-08-28T00:12:49.755Z,0.00
2017-08-28T00:13:49.763Z,0.00
2017-08-28T00:14:49.782Z,0.00
2017-08-28T00:15:49.806Z,0.00
2017-08-28T00:16:49.850Z,0.00
2017-08-28T00:17:49.864Z,0.00
2017-08-28T00:18:49.920Z,0.00
2017-08-28T00:19:49.892Z,0.00
2017-08-28T00:20:49.913Z,0.00
2017-08-28T00:21:49.935Z,0.00
2017-08-28T00:22:49.972Z,0.00
2017-08-28T00:23:49.991Z,0.00
2017-08-28T00:24:50.005Z,0.00
2017-08-28T00:25:50.034Z,0.00
2017-08-28T00:26:50.066Z,0.00
2017-08-28T00:27:50.080Z,0.00
2017-08-28T00:28:50.098Z,0.00
2017-08-28T00:29:50.118Z,0.00
2017-08-28T00:30:50.150Z,0.00
2017-08-28T00:31:50.168Z,0.00
2017-08-28T00:32:50.180Z,0.00
2017-08-28T00:33:50.207Z,0.00
2017-08-28T00:34:50.231Z,0.00
2017-08-28T00:35:50.292Z,0.00
2017-08-28T00:36:50.306Z,0.00
2017-08-28T00:37:50.301Z,0.00
2017-08-28T00:38:50.327Z,0.00
2017-08-28T00:39:50.339Z,0.00
2017-08-28T00:40:50.358Z,0.00
2017-08-28T00:41:50.381Z,0.00
2017-08-28T00:42:50.433Z,0.00
2017-08-28T00:43:50.441Z,0.00
2017-08-28T00:44:50.467Z,0.00
2017-08-28T00:45:50.482Z,0.00
2017-08-28T00:46:50.535Z,0.00
2017-08-28T00:47:50.530Z,0.00
2017-08-28T00:48:50.541Z,0.00
2017-08-28T00:49:50.570Z,0.00
2017-08-28T00:50:50.583Z,0.00
2017-08-28T00:51:50.605Z,0.00
2017-08-28T00:52:50.639Z,0.00
2017-08-28T00:53:50.653Z,0.00
2017-08-28T00:54:50.689Z,0.00
2017-08-28T00:55:50.704Z,0.00
2017-08-28T00:56:50.724Z,0.00
2017-08-28T00:57:50.742Z,0.00
2017-08-28T00:58:50.768Z,0.00
2017-08-28T00:59:50.788Z,0.00
2017-08-28T01:00:50.812Z,0.00
2017-08-28T01:01:50.837Z,0.00
2017-08-28T01:02:50.861Z,0.00
2017-08-28T01:03:50.877Z,0.00
2017-08-28T01:04:50.899Z,0.00
2017-08-28T01:05:50.915Z,0.00
2017-08-28T01:06:50.951Z,0.00
2017-08-28T01:07:50.959Z,0.00
2017-08-28T01:08:51.020Z,0.00
2017-08-28T01:09:51.017Z,0.00
2017-08-28T01:10:51.035Z,0.00
2017-08-28T01:11:51.059Z,0.00
2017-08-28T01:12:51.080Z,0.00
2017-08-28T01:13:51.092Z,0.00
2017-08-28T01:14:51.122Z,0.00
2017-08-28T01:15:51.163Z,0.00
2017-08-28T01:16:51.160Z,0.00
2017-08-28T01:17:51.190Z,0.00
2017-08-28T01:18:51.210Z,0.00
2017-08-28T01:19:51.226Z,0.00
2017-08-28T01:20:51.266Z,0.00
2017-08-28T01:21:51.274Z,0.00
2017-08-28T01:22:51.311Z,0.00
2017-08-28T01:23:51.341Z,0.00
2017-08-28T01:24:51.340Z,0.00
2017-08-28T01:25:51.364Z,0.00
2017-08-28T01:26:51.397Z,0.00
2017-08-28T01:27:51.405Z,0.00
2017-08-28T01:28:51.432Z,0.00
2017-08-28T01:29:51.451Z,0.00
2017-08-28T01:30:51.478Z,0.00
2017-08-28T01:31:51.494Z,0.00
2017-08-28T01:32:51.517Z,0.00
2017-08-28T01:33:51.538Z,0.00
2017-08-28T01:34:51.569Z,0.00
2017-08-28T01:35:51.589Z,0.00
2017-08-28T01:36:51.619Z,0.00
2017-08-28T01:37:51.631Z,0.00
2017-08-28T01:38:51.661Z,0.00
2017-08-28T01:39:51.674Z,0.00
2017-08-28T01:40:51.705Z,0.00
2017-08-28T01:41:51.737Z,0.00
2017-08-28T01:42:51.750Z,0.00
2017-08-28T01:43:51.763Z,0.00
2017-08-28T01:44:51.786Z,0.00
2017-08-28T01:45:51.821Z,0.00
2017-08-28T01:46:51.842Z,0.00
2017-08-28T01:47:51.861Z,0.00
2017-08-28T01:48:51.878Z,0.00
2017-08-28T01:49:51.899Z,0.00
2017-08-28T01:50:51.921Z,0.00
2017-08-28T01:51:51.940Z,0.00
2017-08-28T01:52:51.967Z,0.00
2017-08-28T01:53:51.984Z,0.00
2017-08-28T01:54:52.009Z,0.00
2017-08-28T01:55:52.035Z,0.00
2017-08-28T01:56:52.053Z,0.00
2017-08-28T01:57:52.078Z,0.00
2017-08-28T01:58:52.098Z,0.00
2017-08-28T01:59:52.123Z,0.00
2017-08-28T02:00:52.141Z,0.00
2017-08-28T02:01:52.172Z,0.00
2017-08-28T02:02:52.188Z,0.00
2017-08-28T02:03:52.216Z,0.00
2017-08-28T02:04:52.235Z,0.00
2017-08-28T02:05:52.250Z,0.00
2017-08-28T02:06:52.272Z,0.00
2017-08-28T02:07:52.312Z,0.00
2017-08-28T02:08:52.323Z,0.00
2017-08-28T02:09:52.337Z,0.00
2017-08-28T02:10:52.362Z,0.00
2017-08-28T02:11:52.384Z,0.00
2017-08-28T02:12:52.422Z,0.00
2017-08-28T02:13:52.430Z,0.00
2017-08-28T02:14:52.449Z,0.00
2017-08-28T02:15:52.487Z,0.00
2017-08-28T02:16:52.493Z,0.00
2017-08-28T02:17:52.550Z,0.00
2017-08-28T02:18:52.564Z,0.00
2017-08-28T02:19:52.565Z,0.00
2017-08-28T02:20:52.585Z,0.00
2017-08-28T02:21:52.608Z,0.00
2017-08-28T02:22:52.633Z,0.00
2017-08-28T02:23:52.658Z,0.00
2017-08-28T02:24:52.672Z,0.00
2017-08-28T02:25:52.698Z,0.00
2017-08-28T02:26:52.738Z,0.00
2017-08-28T02:27:52.738Z,0.00
2017-08-28T02:28:52.764Z,0.00
2017-08-28T02:29:52.790Z,0.00
2017-08-28T02:30:52.804Z,0.00
2017-08-28T02:31:52.856Z,0.00
2017-08-28T02:32:52.855Z,0.00
2017-08-28T02:33:52.893Z,0.00
2017-08-28T02:34:52.892Z,0.00
2017-08-28T02:35:52.921Z,0.00
2017-08-28T02:36:52.940Z,0.00
2017-08-28T02:37:52.961Z,0.00
2017-08-28T02:38:52.988Z,0.00
2017-08-28T02:39:53.040Z,0.00
2017-08-28T02:40:53.039Z,0.00
2017-08-28T02:41:53.070Z,0.00
2017-08-28T02:42:53.075Z,0.00
2017-08-28T02:43:53.098Z,0.00
2017-08-28T02:44:53.117Z,0.00
2017-08-28T02:45:53.140Z,0.00
2017-08-28T02:46:53.200Z,0.00
2017-08-28T02:47:53.177Z,0.00
2017-08-28T02:48:53.209Z,0.00
2017-08-28T02:49:53.228Z,0.00
2017-08-28T02:50:53.266Z,0.00
2017-08-28T02:51:53.269Z,0.00
2017-08-28T02:52:53.289Z,0.00
2017-08-28T02:53:53.311Z,0.00
2017-08-28T02:54:53.343Z,0.00
2017-08-28T02:55:53.360Z,0.00
2017-08-28T02:56:53.387Z,0.00
2017-08-28T02:57:53.407Z,0.00
2017-08-28T02:58:53.428Z,0.00
2017-08-28T02:59:53.453Z,0.00
2017-08-28T03:00:53.485Z,0.00
2017-08-28T03:01:53.493Z,0.00
2017-08-28T03:02:53.511Z,0.00
2017-08-28T03:03:53.534Z,0.00
2017-08-28T03:04:53.559Z,0.00
2017-08-28T03:05:53.585Z,0.00
2017-08-28T03:06:53.606Z,0.00
2017-08-28T03:07:53.633Z,0.00
2017-08-28T03:08:53.668Z,0.00
2017-08-28T03:09:53.674Z,0.00
2017-08-28T03:10:53.708Z,0.00
2017-08-28T03:11:53.713Z,0.00
2017-08-28T03:12:53.745Z,0.00
2017-08-28T03:13:53.756Z,0.00
2017-08-28T03:14:53.781Z,0.00
2017-08-28T03:15:53.816Z,0.00
2017-08-28T03:16:53.859Z,0.00
2017-08-28T03:17:53.848Z,0.00
2017-08-28T03:18:53.871Z,0.00
2017-08-28T03:19:53.909Z,0.00
2017-08-28T03:20:53.935Z,0.00
2017-08-28T03:21:53.934Z,0.00
2017-08-28T03:22:53.957Z,0.00
2017-08-28T03:23:53.977Z,0.00
2017-08-28T03:24:53.997Z,0.00
2017-08-28T03:25:54.037Z,0.00
2017-08-28T03:26:54.044Z,0.00
2017-08-28T03:27:54.071Z,0.00
2017-08-28T03:28:54.095Z,0.00
2017-08-28T03:29:54.111Z,0.00
2017-08-28T03:30:54.133Z,0.00
2017-08-28T03:31:54.178Z,0.00
2017-08-28T03:32:54.181Z,0.00
2017-08-28T03:33:54.202Z,0.00
2017-08-28T03:34:54.237Z,0.00
2017-08-28T03:35:54.237Z,0.00
2017-08-28T03:36:54.266Z,0.00
2017-08-28T03:37:54.297Z,0.00
2017-08-28T03:38:54.315Z,0.00
2017-08-28T03:39:54.339Z,0.00
2017-08-28T03:40:54.355Z,0.00
2017-08-28T03:41:54.371Z,0.00
2017-08-28T03:42:54.406Z,0.00
2017-08-28T03:43:54.419Z,0.00
2017-08-28T03:44:54.437Z,0.00
2017-08-28T03:45:54.485Z,0.00
2017-08-28T03:46:54.487Z,0.00
2017-08-28T03:47:54.503Z,0.00
2017-08-28T03:48:54.527Z,0.00
2017-08-28T03:49:54.553Z,0.00
2017-08-28T03:50:54.588Z,0.00
2017-08-28T03:51:54.595Z,0.00
2017-08-28T03:52:54.622Z,0.00
2017-08-28T03:53:54.641Z,0.00
2017-08-28T03:54:54.665Z,0.00
2017-08-28T03:55:54.682Z,0.00
2017-08-28T03:56:54.706Z,0.00
2017-08-28T03:57:54.733Z,0.00
2017-08-28T03:58:54.749Z,4.00
2017-08-28T03:59:54.772Z,4.00
2017-08-28T04:00:54.791Z,4.00
2017-08-28T04:01:54.815Z,0.00
2017-08-28T04:02:54.839Z,4.00
2017-08-28T04:03:54.863Z,4.00
2017-08-28T04:04:54.878Z,4.00
2017-08-28T04:05:54.904Z,8.00
2017-08-28T04:06:54.928Z,4.00
2017-08-28T04:07:54.951Z,8.00
2017-08-28T04:08:54.971Z,8.00
2017-08-28T04:09:54.993Z,8.00
2017-08-28T04:10:55.019Z,12.00
2017-08-28T04:11:55.039Z,12.00
2017-08-28T04:12:55.065Z,16.00
2017-08-28T04:13:55.084Z,20.00
2017-08-28T04:14:55.124Z,24.00
2017-08-28T04:15:55.121Z,28.00
2017-08-28T04:16:55.145Z,32.00
2017-08-28T04:17:55.172Z,32.00
2017-08-28T04:18:55.189Z,36.00
2017-08-28T04:19:55.224Z,44.00
2017-08-28T04:20:55.236Z,48.00
2017-08-28T04:21:55.257Z,52.00
2017-08-28T04:22:55.304Z,56.00
2017-08-28T04:23:55.313Z,60.00
2017-08-28T04:24:55.328Z,68.00
2017-08-28T04:25:55.356Z,76.00
2017-08-28T04:26:55.403Z,84.00
2017-08-28T04:27:55.387Z,92.00
2017-08-28T04:28:55.412Z,100.00
2017-08-28T04:29:55.442Z,112.00
2017-08-28T04:30:55.457Z,120.00
2017-08-28T04:31:55.493Z,132.00
2017-08-28T04:32:55.498Z,144.00
2017-08-28T04:33:55.519Z,160.00
2017-08-28T04:34:55.549Z,172.00
2017-08-28T04:35:55.568Z,188.00
2017-08-28T04:36:55.591Z,200.00
2017-08-28T04:37:55.618Z,216.00
2017-08-28T04:38:55.632Z,232.00
2017-08-28T04:39:55.652Z,252.00
2017-08-28T04:40:55.680Z,268.00
2017-08-28T04:41:55.693Z,292.00
2017-08-28T04:42:55.718Z,312.00
2017-08-28T04:43:55.740Z,332.00
2017-08-28T04:44:55.767Z,352.00
2017-08-28T04:45:55.805Z,376.00
2017-08-28T04:46:55.810Z,400.00
2017-08-28T04:47:55.835Z,424.00
2017-08-28T04:48:55.845Z,444.00
2017-08-28T04:49:55.869Z,472.00
2017-08-28T04:50:55.900Z,496.00
2017-08-28T04:51:55.921Z,520.00
2017-08-28T04:52:55.935Z,544.00
2017-08-28T04:53:55.962Z,568.00
2017-08-28T04:54:56.014Z,592.00
2017-08-28T04:55:56.002Z,616.00
2017-08-28T04:56:56.048Z,640.00
2017-08-28T04:57:56.045Z,664.00
2017-08-28T04:58:56.069Z,692.00
2017-08-28T04:59:56.088Z,716.00
2017-08-28T05:00:56.147Z,740.00
2017-08-28T05:01:56.145Z,768.00
2017-08-28T05:02:56.168Z,788.00
2017-08-28T05:03:56.215Z,812.00
2017-08-28T05:04:56.204Z,832.00
2017-08-28T05:05:56.227Z,856.00
2017-08-28T05:06:56.271Z,876.00
2017-08-28T05:07:56.266Z,900.00
2017-08-28T05:08:56.286Z,924.00
2017-08-28T05:09:56.310Z,944.00
2017-08-28T05:10:56.338Z,992.00
2017-08-28T05:11:56.359Z,1116.00
2017-08-28T05:12:56.395Z,1248.00
2017-08-28T05:13:56.403Z,1312.00
2017-08-28T05:14:56.429Z,1352.00
2017-08-28T05:15:56.447Z,1400.00
2017-08-28T05:16:56.471Z,1460.00
2017-08-28T05:17:56.491Z,1528.00
2017-08-28T05:18:56.517Z,1596.00
2017-08-28T05:19:56.534Z,1664.00
2017-08-28T05:20:56.556Z,1720.00
2017-08-28T05:21:56.575Z,1772.00
2017-08-28T05:22:56.598Z,1816.00
2017-08-28T05:23:56.620Z,1860.00
2017-08-28T05:24:56.646Z,1916.00
2017-08-28T05:25:56.669Z,1952.00
2017-08-28T05:26:56.691Z,2004.00
2017-08-28T05:27:56.725Z,2056.00
2017-08-28T05:28:56.735Z,2120.00
2017-08-28T05:29:56.773Z,2184.00
2017-08-28T05:30:56.778Z,2236.00
2017-08-28T05:31:56.806Z,2280.00
2017-08-28T05:32:56.823Z,2316.00
2017-08-28T05:33:56.853Z,2364.00
2017-08-28T05:34:56.869Z,2408.00
2017-08-28T05:35:56.903Z,2456.00
2017-08-28T05:36:56.921Z,2512.00
2017-08-28T05:37:56.936Z,2560.00
2017-08-28T05:38:56.969Z,2612.00
2017-08-28T05:39:56.986Z,2660.00
2017-08-28T05:40:57.004Z,2712.00
2017-08-28T05:41:57.035Z,2764.00
2017-08-28T05:42:57.062Z,2804.00
2017-08-28T05:43:57.084Z,2852.00
2017-08-28T05:44:57.101Z,2904.00
2017-08-28T05:45:57.121Z,2944.00
2017-08-28T05:46:57.165Z,2988.00
2017-08-28T05:47:57.169Z,3036.00
2017-08-28T05:48:57.196Z,3080.00
2017-08-28T05:49:57.224Z,3128.00
2017-08-28T05:50:57.248Z,3176.00
2017-08-28T05:51:57.268Z,3204.00
2017-08-28T05:52:57.291Z,3240.00
2017-08-28T05:53:57.334Z,3280.00
2017-08-28T05:54:57.353Z,3316.00
2017-08-28T05:55:57.368Z,3348.00
2017-08-28T05:56:57.388Z,3400.00
2017-08-28T05:57:57.421Z,3444.00
2017-08-28T05:58:57.445Z,3488.00
2017-08-28T05:59:57.466Z,3524.00
2017-08-28T06:00:57.502Z,3548.00
2017-08-28T06:01:57.525Z,3588.00
2017-08-28T06:02:57.538Z,3632.00
2017-08-28T06:03:57.567Z,3672.00
2017-08-28T06:04:57.585Z,3712.00
2017-08-28T06:05:57.608Z,3752.00
2017-08-28T06:06:57.639Z,3796.00
2017-08-28T06:07:57.666Z,3828.00
2017-08-28T06:08:57.678Z,3852.00
2017-08-28T06:09:57.707Z,3900.00
2017-08-28T06:10:57.734Z,3928.00
2017-08-28T06:11:57.794Z,3976.00
2017-08-28T06:12:57.798Z,4028.00
2017-08-28T06:13:57.809Z,4068.00
2017-08-28T06:14:57.832Z,4108.00
2017-08-28T06:15:57.862Z,4144.00
2017-08-28T06:16:57.883Z,4176.00
2017-08-28T06:17:57.908Z,4212.00
2017-08-28T06:18:57.937Z,4248.00
2017-08-28T06:19:57.952Z,4288.00
2017-08-28T06:20:57.977Z,4324.00
2017-08-28T06:21:58.006Z,4352.00
2017-08-28T06:22:58.031Z,4380.00
2017-08-28T06:23:58.060Z,4420.00
2017-08-28T06:24:58.075Z,4456.00
2017-08-28T06:25:58.109Z,4500.00
2017-08-28T06:26:58.133Z,4552.00
2017-08-28T06:27:58.159Z,4592.00
2017-08-28T06:28:58.176Z,4640.00
2017-08-28T06:29:58.207Z,4684.00
2017-08-28T06:30:58.229Z,4720.00
2017-08-28T06:31:58.254Z,4756.00
2017-08-28T06:32:58.282Z,4808.00
2017-08-28T06:33:58.306Z,4860.00
2017-08-28T06:34:58.338Z,4900.00
2017-08-28T06:35:58.356Z,4944.00
2017-08-28T06:36:58.386Z,4984.00
2017-08-28T06:37:58.404Z,5020.00
2017-08-28T06:38:58.439Z,5048.00
2017-08-28T06:39:58.478Z,5076.00
2017-08-28T06:40:58.492Z,5104.00
2017-08-28T06:41:58.509Z,5132.00
2017-08-28T06:42:58.542Z,5168.00
2017-08-28T06:43:58.559Z,5204.00
2017-08-28T06:44:58.587Z,5236.00
2017-08-28T06:45:58.614Z,5260.00
2017-08-28T06:46:58.638Z,5276.00
2017-08-28T06:47:58.666Z,5284.00
2017-08-28T06:48:58.689Z,5292.00
2017-08-28T06:49:58.714Z,5316.00
2017-08-28T06:50:58.735Z,5336.00
2017-08-28T06:51:58.776Z,5352.00
2017-08-28T06:52:58.806Z,5364.00
2017-08-28T06:53:58.821Z,5376.00
2017-08-28T06:54:58.846Z,5400.00
2017-08-28T06:55:58.868Z,5428.00
2017-08-28T06:56:58.894Z,5452.00
2017-08-28T06:57:58.919Z,5472.00
2017-08-28T06:58:58.947Z,5484.00
2017-08-28T06:59:58.979Z,5508.00
2017-08-28T07:00:58.996Z,5524.00
2017-08-28T07:01:59.029Z,5536.00
2017-08-28T07:02:59.055Z,5548.00
2017-08-28T07:03:59.080Z,5576.00
2017-08-28T07:04:59.101Z,5592.00
2017-08-28T07:05:59.135Z,5604.00
2017-08-28T07:06:59.162Z,5620.00
2017-08-28T07:07:59.175Z,5628.00
2017-08-28T07:08:59.209Z,5640.00
2017-08-28T07:09:59.239Z,5640.00
2017-08-28T07:10:59.256Z,5640.00
2017-08-28T07:11:59.291Z,5652.00
2017-08-28T07:12:59.305Z,5644.00
2017-08-28T07:13:59.341Z,5644.00
2017-08-28T07:14:59.358Z,5652.00
2017-08-28T07:15:59.388Z,5648.00
2017-08-28T07:16:59.421Z,5648.00
2017-08-28T07:17:59.437Z,5652.00
2017-08-28T07:18:59.463Z,5660.00
2017-08-28T07:19:59.492Z,5676.00
2017-08-28T07:20:59.526Z,5676.00
2017-08-28T07:21:59.560Z,5668.00
2017-08-28T07:22:59.586Z,5664.00
2017-08-28T07:23:59.593Z,5680.00
2017-08-28T07:24:59.617Z,5744.00
2017-08-28T07:25:59.648Z,6564.00
2017-08-28T07:26:59.672Z,15828.00
2017-08-28T07:27:59.704Z,26976.00
2017-08-28T07:28:59.724Z,29952.00
2017-08-28T07:29:59.757Z,30336.00
2017-08-28T07:30:59.770Z,30112.00
2017-08-28T07:31:59.803Z,30400.00
2017-08-28T07:32:59.822Z,30528.00
2017-08-28T07:33:59.850Z,30912.00
2017-08-28T07:34:59.878Z,30624.00
2017-08-28T07:35:59.904Z,30976.00
2017-08-28T07:36:59.943Z,31552.00
2017-08-28T07:37:59.965Z,31168.00
2017-08-28T07:38:59.979Z,30848.00
2017-08-28T07:40:00.006Z,30976.00
2017-08-28T07:41:00.041Z,31200.00
2017-08-28T07:42:00.063Z,30976.00
2017-08-28T07:43:00.083Z,31488.00
2017-08-28T07:44:00.111Z,31936.00
2017-08-28T07:45:00.142Z,31584.00
2017-08-28T07:46:00.161Z,31424.00
2017-08-28T07:47:00.206Z,31904.00
2017-08-28T07:48:00.215Z,31552.00
2017-08-28T07:49:00.235Z,31648.00
2017-08-28T07:50:00.269Z,32032.00
2017-08-28T07:51:00.291Z,31776.00
2017-08-28T07:52:00.336Z,31360.00
2017-08-28T07:53:00.359Z,30944.00
2017-08-28T07:54:00.371Z,31008.00
2017-08-28T07:55:00.397Z,31264.00
2017-08-28T07:56:00.421Z,31648.00
2017-08-28T07:57:00.447Z,30880.00
2017-08-28T07:58:00.472Z,31072.00
2017-08-28T07:59:00.510Z,31072.00
2017-08-28T08:00:00.519Z,30912.00
2017-08-28T08:01:00.550Z,30496.00
2017-08-28T08:02:00.579Z,30816.00
2017-08-28T08:03:00.613Z,30272.00
2017-08-28T08:04:00.635Z,30080.00
2017-08-28T08:05:00.651Z,29184.00
2017-08-28T08:06:00.678Z,28032.00
2017-08-28T08:07:00.715Z,26208.00
2017-08-28T08:08:00.733Z,25856.00
2017-08-28T08:09:00.754Z,26752.00
2017-08-28T08:10:00.781Z,26464.00
2017-08-28T08:11:00.809Z,25792.00
2017-08-28T08:12:00.831Z,25152.00
2017-08-28T08:13:00.859Z,24224.00
2017-08-28T08:14:00.892Z,24032.00
2017-08-28T08:15:00.919Z,24736.00
2017-08-28T08:16:00.936Z,24864.00
2017-08-28T08:17:00.961Z,21440.00
2017-08-28T08:18:00.992Z,10776.00
2017-08-28T08:19:01.016Z,3672.00
2017-08-28T08:20:01.054Z,3520.00
2017-08-28T08:21:01.071Z,3452.00
2017-08-28T08:22:01.103Z,3376.00
2017-08-28T08:23:01.120Z,3312.00
2017-08-28T08:24:01.166Z,3264.00
2017-08-28T08:25:01.182Z,3236.00
2017-08-28T08:26:01.195Z,3200.00
2017-08-28T08:27:01.225Z,3160.00
2017-08-28T08:28:01.243Z,3136.00
2017-08-28T08:29:01.276Z,3100.00
2017-08-28T08:30:01.298Z,3040.00
2017-08-28T08:31:01.337Z,2932.00
2017-08-28T08:32:01.347Z,2808.00
2017-08-28T08:33:01.378Z,2692.00
2017-08-28T08:34:01.401Z,2564.00
2017-08-28T08:35:01.427Z,2468.00
2017-08-28T08:36:01.453Z,2396.00
2017-08-28T08:37:01.482Z,2344.00
2017-08-28T08:38:01.503Z,2304.00
2017-08-28T08:39:01.535Z,2264.00
2017-08-28T08:40:01.560Z,2236.00
2017-08-28T08:41:01.582Z,2212.00
2017-08-28T08:42:01.609Z,2192.00
2017-08-28T08:43:01.640Z,2172.00
2017-08-28T08:44:01.660Z,2152.00
2017-08-28T08:45:01.681Z,2132.00
2017-08-28T08:46:01.710Z,2120.00
2017-08-28T08:47:01.736Z,2116.00
2017-08-28T08:48:01.775Z,2108.00
2017-08-28T08:49:01.791Z,2096.00
2017-08-28T08:50:01.819Z,2084.00
2017-08-28T08:51:01.856Z,2080.00
2017-08-28T08:52:01.862Z,2068.00
2017-08-28T08:53:01.882Z,2064.00
2017-08-28T08:54:01.912Z,2052.00
2017-08-28T08:55:01.938Z,2044.00
2017-08-28T08:56:01.962Z,2036.00
2017-08-28T08:57:01.995Z,2032.00
2017-08-28T08:58:02.009Z,2028.00
2017-08-28T08:59:02.034Z,2020.00
2017-08-28T09:00:02.065Z,2012.00
2017-08-28T09:01:02.089Z,2008.00
2017-08-28T09:02:02.115Z,2000.00
2017-08-28T09:03:02.137Z,1996.00
2017-08-28T09:04:02.163Z,1988.00
2017-08-28T09:05:02.196Z,1984.00
2017-08-28T09:06:02.217Z,1976.00
2017-08-28T09:07:02.247Z,1972.00
2017-08-28T09:08:02.263Z,1968.00
2017-08-28T09:09:02.286Z,1960.00
2017-08-28T09:10:02.311Z,1956.00
2017-08-28T09:11:02.369Z,1956.00
2017-08-28T09:12:02.369Z,1952.00
2017-08-28T09:13:02.406Z,1948.00
2017-08-28T09:14:02.420Z,1940.00
2017-08-28T09:15:02.449Z,1936.00
2017-08-28T09:16:02.480Z,1932.00
2017-08-28T09:17:02.505Z,1932.00
2017-08-28T09:18:02.523Z,1924.00
2017-08-28T09:19:02.560Z,1924.00
2017-08-28T09:20:02.564Z,1924.00
2017-08-28T09:21:02.590Z,1920.00
2017-08-28T09:22:02.637Z,1916.00
2017-08-28T09:23:02.640Z,1908.00
2017-08-28T09:24:02.662Z,1904.00
2017-08-28T09:25:02.690Z,1896.00
2017-08-28T09:26:02.729Z,1888.00
2017-08-28T09:27:02.764Z,1884.00
2017-08-28T09:28:02.759Z,1900.00
2017-08-28T09:29:02.787Z,1908.00
2017-08-28T09:30:02.813Z,1912.00
2017-08-28T09:31:02.839Z,1900.00
2017-08-28T09:32:02.860Z,1896.00
2017-08-28T09:33:02.905Z,1888.00
2017-08-28T09:34:02.917Z,1884.00
2017-08-28T09:35:02.988Z,1880.00
2017-08-28T09:36:02.966Z,1872.00
2017-08-28T09:37:02.997Z,1860.00
2017-08-28T09:38:03.020Z,1848.00
2017-08-28T09:39:03.034Z,1840.00
2017-08-28T09:40:03.074Z,1836.00
2017-08-28T09:41:03.089Z,1832.00
2017-08-28T09:42:03.117Z,1828.00
2017-08-28T09:43:03.144Z,1824.00
2017-08-28T09:44:03.167Z,1816.00
2017-08-28T09:45:03.189Z,1812.00
2017-08-28T09:46:03.218Z,1812.00
2017-08-28T09:47:03.240Z,1808.00
2017-08-28T09:48:03.270Z,1804.00
2017-08-28T09:49:03.289Z,1804.00
2017-08-28T09:50:03.331Z,1796.00
2017-08-28T09:51:03.339Z,1788.00
2017-08-28T09:52:03.364Z,1788.00
2017-08-28T09:53:03.401Z,1788.00
2017-08-28T09:54:03.418Z,1792.00
2017-08-28T09:55:03.437Z,1792.00
2017-08-28T09:56:03.461Z,1792.00
2017-08-28T09:57:03.485Z,1800.00
2017-08-28T09:58:03.522Z,1808.00
2017-08-28T09:59:03.542Z,1804.00
2017-08-28T10:00:03.568Z,1796.00
2017-08-28T10:01:03.593Z,1796.00
2017-08-28T10:02:03.619Z,1792.00
2017-08-28T10:03:03.649Z,1792.00
2017-08-28T10:04:03.667Z,1780.00
2017-08-28T10:05:03.689Z,1760.00
2017-08-28T10:06:03.733Z,1748.00
2017-08-28T10:07:03.744Z,1748.00
2017-08-28T10:08:03.768Z,1748.00
2017-08-28T10:09:03.798Z,1752.00
2017-08-28T10:10:03.816Z,1748.00
2017-08-28T10:11:03.836Z,1780.00
2017-08-28T10:12:03.863Z,1784.00
2017-08-28T10:13:03.888Z,1780.00
2017-08-28T10:14:03.914Z,1772.00
2017-08-28T10:15:03.941Z,1764.00
2017-08-28T10:16:03.962Z,1764.00
2017-08-28T10:17:03.987Z,1764.00
2017-08-28T10:18:04.014Z,1768.00
2017-08-28T10:19:04.035Z,1772.00
2017-08-28T10:20:04.060Z,1764.00
2017-08-28T10:21:04.083Z,1756.00
2017-08-28T10:22:04.139Z,1764.00
2017-08-28T10:23:04.138Z,1832.00
2017-08-28T10:24:04.170Z,1912.00
2017-08-28T10:25:04.192Z,1964.00
2017-08-28T10:26:04.215Z,1992.00
2017-08-28T10:27:04.239Z,2028.00
2017-08-28T10:28:04.270Z,2060.00
2017-08-28T10:29:04.299Z,2060.00
2017-08-28T10:30:04.327Z,2092.00
2017-08-28T10:31:04.336Z,2148.00
2017-08-28T10:32:04.365Z,2224.00
2017-08-28T10:33:04.384Z,2308.00
2017-08-28T10:34:04.419Z,2352.00
2017-08-28T10:35:04.441Z,2264.00
2017-08-28T10:36:04.467Z,2180.00
2017-08-28T10:37:04.511Z,2132.00
2017-08-28T10:38:04.518Z,2116.00
2017-08-28T10:39:04.540Z,2132.00
2017-08-28T10:40:04.566Z,2120.00
2017-08-28T10:41:04.584Z,2124.00
2017-08-28T10:42:04.610Z,2088.00
2017-08-28T10:43:04.652Z,2048.00
2017-08-28T10:44:04.680Z,2008.00
2017-08-28T10:45:04.701Z,1976.00
2017-08-28T10:46:04.728Z,1912.00
2017-08-28T10:47:04.736Z,1840.00
2017-08-28T10:48:04.761Z,1780.00
2017-08-28T10:49:04.803Z,1740.00
2017-08-28T10:50:04.818Z,1728.00
2017-08-28T10:51:04.838Z,1712.00
2017-08-28T10:52:04.868Z,1652.00
2017-08-28T10:53:04.901Z,1616.00
2017-08-28T10:54:04.910Z,1592.00
2017-08-28T10:55:04.940Z,1600.00
2017-08-28T10:56:04.977Z,1580.00
2017-08-28T10:57:04.986Z,1544.00
2017-08-28T10:58:05.018Z,1520.00
2017-08-28T10:59:05.039Z,1500.00
2017-08-28T11:00:05.060Z,1484.00
2017-08-28T11:01:05.090Z,1484.00
2017-08-28T11:02:05.114Z,1492.00
2017-08-28T11:03:05.139Z,1488.00
2017-08-28T11:04:05.162Z,1484.00
2017-08-28T11:05:05.191Z,1480.00
2017-08-28T11:06:05.213Z,1488.00
2017-08-28T11:07:05.240Z,1508.00
2017-08-28T11:08:05.261Z,1512.00
2017-08-28T11:09:05.291Z,1512.00
2017-08-28T11:10:05.313Z,1528.00
2017-08-28T11:11:05.336Z,1564.00
2017-08-28T11:12:05.359Z,1596.00
2017-08-28T11:13:05.485Z,1600.00
2017-08-28T11:14:05.411Z,1592.00
2017-08-28T11:15:05.462Z,1596.00
2017-08-28T11:16:05.457Z,1580.00
2017-08-28T11:17:05.485Z,1536.00
2017-08-28T11:18:05.515Z,1508.00
2017-08-28T11:19:05.540Z,1472.00
2017-08-28T11:20:05.564Z,1456.00
2017-08-28T11:21:05.586Z,1448.00
2017-08-28T11:22:05.618Z,1444.00
2017-08-28T11:23:05.648Z,1420.00
2017-08-28T11:24:05.666Z,1404.00
2017-08-28T11:25:05.691Z,1400.00
2017-08-28T11:26:05.712Z,1400.00
2017-08-28T11:27:05.740Z,1400.00
2017-08-28T11:28:05.758Z,1408.00
2017-08-28T11:29:05.814Z,1412.00
2017-08-28T11:30:05.841Z,1416.00
2017-08-28T11:31:05.834Z,1404.00
2017-08-28T11:32:05.858Z,1396.00
2017-08-28T11:33:05.910Z,1404.00
2017-08-28T11:34:05.921Z,1396.00
2017-08-28T11:35:05.936Z,1384.00
2017-08-28T11:36:05.958Z,1368.00
2017-08-28T11:37:05.992Z,1368.00
2017-08-28T11:38:06.018Z,1364.00
2017-08-28T11:39:06.034Z,1360.00
2017-08-28T11:40:06.061Z,1356.00
2017-08-28T11:41:06.103Z,1352.00
2017-08-28T11:42:06.132Z,1352.00
2017-08-28T11:43:06.138Z,1352.00
2017-08-28T11:44:06.168Z,1352.00
2017-08-28T11:45:06.206Z,1348.00
2017-08-28T11:46:06.217Z,1344.00
2017-08-28T11:47:06.245Z,1344.00
2017-08-28T11:48:06.260Z,1344.00
2017-08-28T11:49:06.289Z,1340.00
2017-08-28T11:50:06.330Z,1332.00
2017-08-28T11:51:06.340Z,1328.00
2017-08-28T11:52:06.357Z,1320.00
2017-08-28T11:53:06.388Z,1308.00
2017-08-28T11:54:06.410Z,1312.00
2017-08-28T11:55:06.448Z,1316.00
2017-08-28T11:56:06.465Z,1328.00
2017-08-28T11:57:06.487Z,1332.00
2017-08-28T11:58:06.512Z,1340.00
2017-08-28T11:59:06.539Z,1352.00
2017-08-28T12:00:06.577Z,1368.00
2017-08-28T12:01:06.595Z,1396.00
2017-08-28T12:02:06.619Z,1400.00
2017-08-28T12:03:06.648Z,1404.00
2017-08-28T12:04:06.662Z,1436.00
2017-08-28T12:05:06.694Z,1484.00
2017-08-28T12:06:06.710Z,1492.00
2017-08-28T12:07:06.749Z,1424.00
2017-08-28T12:08:06.757Z,1352.00
2017-08-28T12:09:06.789Z,1300.00
2017-08-28T12:10:06.830Z,1284.00
2017-08-28T12:11:06.850Z,1276.00
2017-08-28T12:12:06.859Z,1264.00
2017-08-28T12:13:06.908Z,1256.00
2017-08-28T12:14:06.914Z,1276.00
2017-08-28T12:15:06.963Z,1296.00
2017-08-28T12:16:06.962Z,1344.00
2017-08-28T12:17:06.985Z,1352.00
2017-08-28T12:18:07.010Z,1348.00
2017-08-28T12:19:07.033Z,1288.00
2017-08-28T12:20:07.060Z,1268.00
2017-08-28T12:21:07.086Z,1292.00
2017-08-28T12:22:07.112Z,1328.00
2017-08-28T12:23:07.135Z,1344.00
2017-08-28T12:24:07.166Z,1328.00
2017-08-28T12:25:07.188Z,1296.00
2017-08-28T12:26:07.215Z,1276.00
2017-08-28T12:27:07.239Z,1272.00
2017-08-28T12:28:07.271Z,1268.00
2017-08-28T12:29:07.290Z,1264.00
2017-08-28T12:30:07.308Z,1260.00